createdAt,value
2022-08-28T00:00:45.036Z,90.77
2022-08-28T00:03:15.422Z,90.92
2022-08-28T00:05:46.489Z,91.09
2022-08-28T00:08:17.847Z,90.93
2022-08-28T00:10:47.446Z,90.51
2022-08-28T00:13:22.669Z,90.99
2022-08-28T00:15:55.606Z,91.60
2022-08-28T00:18:26.528Z,92.12
2022-08-28T00:20:55.427Z,92.70
2022-08-28T00:23:25.435Z,93.00
2022-08-28T00:26:05.613Z,93.48
2022-08-28T00:28:33.869Z,93.78
2022-08-28T00:31:02.412Z,93.68
2022-08-28T00:33:34.051Z,94.03
2022-08-28T00:36:04.848Z,94.15
2022-08-28T00:38:34.708Z,94.01
2022-08-28T00:41:04.973Z,94.22
2022-08-28T00:43:38.580Z,94.34
2022-08-28T00:46:11.365Z,94.44
2022-08-28T00:48:39.864Z,94.11
2022-08-28T00:51:26.777Z,94.18
2022-08-28T00:53:59.718Z,93.99
2022-08-28T00:56:30.289Z,93.92
2022-08-28T00:59:05.191Z,93.87
2022-08-28T01:01:33.579Z,93.78
2022-08-28T01:04:06.116Z,93.87
2022-08-28T01:06:35.169Z,93.61
2022-08-28T01:09:06.483Z,93.69
2022-08-28T01:11:35.211Z,94.03
2022-08-28T01:14:05.599Z,93.91
2022-08-28T01:16:34.806Z,94.13
2022-08-28T01:19:07.912Z,94.16
2022-08-28T01:21:45.992Z,94.11
2022-08-28T01:24:18.814Z,94.08
2022-08-28T01:26:47.665Z,94.31
2022-08-28T01:29:16.391Z,94.24
2022-08-28T01:31:45.085Z,94.34
2022-08-28T01:34:14.731Z,94.60
2022-08-28T01:36:43.933Z,94.70
2022-08-28T01:39:19.206Z,94.94
2022-08-28T01:41:51.792Z,94.79
2022-08-28T01:44:24.162Z,94.63
2022-08-28T01:46:55.244Z,94.71
2022-08-28T01:49:25.713Z,94.81
2022-08-28T01:51:54.850Z,94.98
2022-08-28T01:54:26.817Z,95.10
2022-08-28T01:56:56.142Z,95.24
2022-08-28T01:59:24.863Z,95.35
2022-08-28T02:01:53.979Z,95.42
2022-08-28T02:04:23.066Z,95.39
2022-08-28T02:07:00.289Z,95.37
2022-08-28T02:09:30.001Z,95.24
2022-08-28T02:11:58.389Z,95.26
2022-08-28T02:14:26.868Z,95.38
2022-08-28T02:16:56.273Z,95.24
2022-08-28T02:19:24.641Z,95.16
2022-08-28T02:21:53.155Z,95.18
2022-08-28T02:24:22.180Z,95.41
2022-08-28T02:26:51.839Z,95.63
2022-08-28T02:29:20.196Z,95.80
2022-08-28T02:31:48.653Z,96.01
2022-08-28T02:34:19.794Z,96.02
2022-08-28T02:36:49.186Z,96.19
2022-08-28T02:39:17.790Z,96.12
2022-08-28T02:41:46.228Z,96.62
2022-08-28T02:44:17.297Z,97.02
2022-08-28T02:46:45.716Z,97.36
2022-08-28T02:49:14.162Z,97.83
2022-08-28T02:51:42.962Z,97.92
2022-08-28T02:54:11.676Z,98.20
2022-08-28T02:56:43.148Z,98.21
2022-08-28T02:59:11.544Z,98.00
2022-08-28T03:01:41.304Z,98.10
2022-08-28T03:04:09.679Z,97.92
2022-08-28T03:06:38.096Z,98.03
2022-08-28T03:09:06.907Z,98.01
2022-08-28T03:11:36.500Z,98.17
2022-08-28T03:14:05.186Z,98.06
2022-08-28T03:16:34.202Z,97.77
2022-08-28T03:19:04.004Z,98.05
2022-08-28T03:21:32.353Z,98.14
2022-08-28T03:23:59.759Z,98.06
2022-08-28T03:26:28.511Z,97.96
2022-08-28T03:28:57.566Z,98.01
2022-08-28T03:31:33.699Z,98.14
2022-08-28T03:34:04.640Z,98.34
2022-08-28T03:36:33.748Z,98.64
2022-08-28T03:39:05.504Z,98.84
2022-08-28T03:41:35.827Z,98.97
2022-08-28T03:44:05.088Z,99.06
2022-08-28T03:46:35.041Z,99.16
2022-08-28T03:49:06.650Z,98.75
2022-08-28T03:51:36.252Z,98.37
2022-08-28T03:54:05.807Z,98.49
2022-08-28T03:56:34.280Z,98.48
2022-08-28T03:59:05.473Z,98.24
2022-08-28T04:01:34.498Z,98.29
2022-08-28T04:04:05.022Z,98.41
2022-08-28T04:06:33.405Z,98.53
2022-08-28T04:09:04.825Z,98.65
2022-08-28T04:11:38.318Z,98.66
2022-08-28T04:14:07.006Z,98.84
2022-08-28T04:16:35.456Z,99.08
2022-08-28T04:19:05.375Z,99.20
2022-08-28T04:21:33.859Z,99.49
2022-08-28T04:24:03.048Z,99.44
2022-08-28T04:26:36.511Z,99.21
2022-08-28T04:29:06.753Z,98.95
2022-08-28T04:31:36.059Z,99.05
2022-08-28T04:34:08.632Z,98.73
2022-08-28T04:36:37.885Z,98.68
2022-08-28T04:39:08.609Z,98.32
2022-08-28T04:41:38.731Z,98.55
2022-08-28T04:44:08.736Z,98.68
2022-08-28T04:46:38.701Z,99.15
2022-08-28T04:49:08.498Z,99.18
2022-08-28T04:51:40.084Z,99.24
2022-08-28T04:54:11.725Z,99.42
2022-08-28T04:56:41.967Z,99.18
2022-08-28T04:59:11.691Z,99.64
2022-08-28T05:01:42.947Z,99.48
2022-08-28T05:04:13.988Z,99.27
2022-08-28T05:06:46.032Z,99.76
2022-08-28T05:09:16.865Z,99.98
2022-08-28T05:11:45.696Z,99.61
2022-08-28T05:14:16.399Z,99.35
2022-08-28T05:16:48.503Z,99.59
2022-08-28T05:19:20.633Z,99.28
2022-08-28T05:21:49.989Z,99.23
2022-08-28T05:24:18.849Z,99.20
2022-08-28T05:26:48.241Z,99.07
2022-08-28T05:29:17.684Z,99.03
2022-08-28T05:31:47.448Z,99.45
2022-08-28T05:34:17.925Z,99.44
2022-08-28T05:36:46.300Z,99.08
2022-08-28T05:39:15.135Z,98.92
2022-08-28T05:41:46.723Z,98.86
2022-08-28T05:44:20.898Z,98.78
2022-08-28T05:46:49.936Z,98.17
2022-08-28T05:49:20.454Z,97.87
2022-08-28T05:51:49.900Z,97.75
2022-08-28T05:54:18.967Z,97.94
2022-08-28T05:56:48.466Z,98.01
2022-08-28T05:59:17.733Z,97.97
2022-08-28T06:01:48.941Z,98.33
2022-08-28T06:04:23.436Z,98.28
2022-08-28T06:06:52.128Z,97.90
2022-08-28T06:09:28.687Z,97.98
2022-08-28T06:12:00.835Z,98.07
2022-08-28T06:14:31.180Z,97.86
2022-08-28T06:17:00.480Z,97.79
2022-08-28T06:19:33.569Z,97.61
2022-08-28T06:22:07.157Z,97.07
2022-08-28T06:24:35.871Z,96.54
2022-08-28T06:27:04.390Z,96.25
2022-08-28T06:29:32.723Z,95.87
2022-08-28T06:32:05.365Z,94.85
2022-08-28T06:34:35.523Z,94.46
2022-08-28T06:37:04.000Z,93.85
2022-08-28T06:39:32.325Z,93.85
2022-08-28T06:42:01.302Z,93.85
2022-08-28T06:44:32.018Z,93.06
2022-08-28T06:47:00.516Z,92.52
2022-08-28T06:49:28.999Z,91.98
2022-08-28T06:51:58.746Z,92.19
2022-08-28T06:54:27.109Z,92.66
2022-08-28T06:56:55.558Z,92.76
2022-08-28T06:59:24.072Z,91.62
2022-08-28T07:01:54.740Z,91.43
2022-08-28T07:04:23.352Z,91.71
2022-08-28T07:06:54.494Z,92.05
2022-08-28T07:09:25.318Z,91.49
2022-08-28T07:11:54.293Z,92.16
2022-08-28T07:14:23.228Z,92.27
2022-08-28T07:16:54.477Z,92.03
2022-08-28T07:19:22.882Z,91.86
2022-08-28T07:21:51.239Z,92.20
2022-08-28T07:24:20.165Z,91.46
2022-08-28T07:26:50.222Z,90.90
2022-08-28T07:29:19.862Z,90.67
2022-08-28T07:31:55.868Z,90.69
2022-08-28T07:34:27.068Z,91.09
2022-08-28T07:36:56.240Z,90.87
2022-08-28T07:39:25.163Z,90.74
2022-08-28T07:41:54.911Z,89.70
2022-08-28T07:44:41.023Z,89.39
2022-08-28T07:47:11.545Z,89.33
2022-08-28T07:49:41.466Z,89.62
2022-08-28T07:52:11.849Z,90.02
2022-08-28T07:54:40.820Z,89.74
2022-08-28T07:57:11.074Z,90.00
2022-08-28T07:59:42.857Z,90.70
2022-08-28T08:02:11.810Z,89.63
2022-08-28T08:04:40.964Z,89.21
2022-08-28T08:07:10.097Z,90.19
2022-08-28T08:09:40.321Z,89.98
2022-08-28T08:12:11.665Z,89.11
2022-08-28T08:14:41.093Z,87.88
2022-08-28T08:17:10.242Z,88.72
2022-08-28T08:19:39.395Z,88.07
2022-08-28T08:22:08.352Z,87.37
2022-08-28T08:24:36.823Z,86.72
2022-08-28T08:27:06.629Z,85.96
2022-08-28T08:29:39.068Z,85.54
2022-08-28T08:32:11.002Z,85.63
2022-08-28T08:34:42.891Z,85.58
2022-08-28T08:37:13.273Z,84.78
2022-08-28T08:39:43.669Z,85.62
2022-08-28T08:42:23.972Z,85.02
2022-08-28T08:44:56.517Z,85.38
2022-08-28T08:47:35.350Z,85.01
2022-08-28T08:50:08.088Z,84.16
2022-08-28T08:52:51.384Z,83.27
2022-08-28T08:55:31.408Z,82.91
2022-08-28T08:58:07.991Z,82.08
2022-08-28T09:00:58.105Z,82.82
2022-08-28T09:03:39.611Z,81.64
2022-08-28T09:06:34.011Z,81.84
2022-08-28T09:09:07.978Z,81.05
2022-08-28T09:11:46.063Z,81.19
2022-08-28T09:14:29.448Z,82.27
2022-08-28T09:17:00.499Z,81.75
2022-08-28T09:19:28.900Z,82.01
2022-08-28T09:21:58.147Z,82.41
2022-08-28T09:24:31.801Z,81.78
2022-08-28T09:27:14.207Z,80.59
2022-08-28T09:29:44.026Z,78.68
2022-08-28T09:32:26.703Z,80.09
2022-08-28T09:35:15.294Z,78.96
2022-08-28T09:37:45.053Z,79.13
2022-08-28T09:40:52.728Z,78.20
2022-08-28T09:43:28.451Z,77.54
2022-08-28T09:46:01.772Z,76.87
2022-08-28T09:48:38.148Z,75.96
2022-08-28T09:51:09.174Z,77.15
2022-08-28T09:53:44.018Z,77.16
2022-08-28T09:56:19.472Z,75.39
2022-08-28T09:58:51.445Z,75.07
2022-08-28T10:01:40.591Z,74.80
2022-08-28T10:04:47.491Z,75.49
2022-08-28T10:07:25.309Z,74.72
2022-08-28T10:10:06.519Z,73.67
2022-08-28T10:12:51.413Z,73.01
2022-08-28T10:15:29.887Z,72.50
2022-08-28T10:18:31.348Z,73.69
2022-08-28T10:21:12.821Z,75.30
2022-08-28T10:24:13.842Z,75.06
2022-08-28T10:26:50.398Z,72.88
2022-08-28T10:29:32.625Z,73.31
2022-08-28T10:32:40.222Z,73.59
2022-08-28T10:35:15.958Z,74.68
2022-08-28T10:37:58.046Z,73.50
2022-08-28T10:40:31.166Z,72.90
2022-08-28T10:43:06.031Z,72.60
2022-08-28T10:45:36.125Z,71.28
2022-08-28T10:48:12.270Z,70.37
2022-08-28T10:50:47.826Z,71.09
2022-08-28T10:53:22.452Z,72.22
2022-08-28T10:55:59.224Z,70.56
2022-08-28T10:58:29.032Z,71.06
2022-08-28T11:01:02.258Z,69.77
2022-08-28T11:03:40.522Z,66.81
2022-08-28T11:06:17.885Z,67.41
2022-08-28T11:08:54.620Z,66.20
2022-08-28T11:11:44.545Z,67.57
2022-08-28T11:14:26.878Z,67.73
2022-08-28T11:17:01.459Z,64.98
2022-08-28T11:20:14.014Z,65.15
2022-08-28T11:22:48.008Z,66.81
2022-08-28T11:25:26.709Z,64.16
2022-08-28T11:28:44.683Z,65.23
2022-08-28T11:31:43.359Z,66.24
2022-08-28T11:34:57.994Z,66.17
2022-08-28T11:37:40.468Z,67.07
2022-08-28T11:40:19.405Z,64.82
2022-08-28T11:42:49.380Z,63.93
2022-08-28T11:45:22.893Z,63.03
2022-08-28T11:47:57.748Z,62.94
2022-08-28T11:50:34.666Z,64.40
2022-08-28T11:53:37.954Z,63.35
2022-08-28T11:56:37.679Z,64.33
2022-08-28T12:00:03.000Z,61.92
2022-08-28T12:03:12.097Z,63.06
2022-08-28T12:05:46.667Z,61.49
2022-08-28T12:09:04.232Z,61.29
2022-08-28T12:12:11.959Z,61.29
2022-08-28T12:15:10.185Z,60.42
2022-08-28T12:17:54.503Z,61.01
2022-08-28T12:20:48.499Z,60.19
2022-08-28T12:23:43.057Z,59.94
2022-08-28T12:26:24.547Z,59.24
2022-08-28T12:28:58.832Z,58.60
2022-08-28T12:32:15.068Z,58.81
2022-08-28T12:34:55.702Z,56.98
2022-08-28T12:37:47.561Z,57.86
2022-08-28T12:40:25.309Z,57.04
2022-08-28T12:42:57.042Z,56.92
2022-08-28T12:45:32.353Z,55.90
2022-08-28T12:48:05.540Z,56.46
2022-08-28T12:50:38.239Z,56.97
2022-08-28T12:53:13.114Z,55.40
2022-08-28T12:55:42.182Z,55.01
2022-08-28T12:58:15.149Z,55.34
2022-08-28T13:00:56.345Z,53.79
2022-08-28T13:03:25.103Z,53.96
2022-08-28T13:06:01.524Z,54.60
2022-08-28T13:08:31.369Z,54.54
2022-08-28T13:10:59.989Z,52.81
2022-08-28T13:13:36.734Z,51.48
2022-08-28T13:16:08.897Z,51.10
2022-08-28T13:18:51.524Z,52.02
2022-08-28T13:21:37.225Z,49.90
2022-08-28T13:24:27.481Z,50.14
2022-08-28T13:27:06.763Z,50.46
2022-08-28T13:29:35.458Z,49.83
2022-08-28T13:32:08.313Z,48.92
2022-08-28T13:34:45.530Z,48.93
2022-08-28T13:37:43.077Z,48.25
2022-08-28T13:40:30.306Z,47.16
2022-08-28T13:43:06.809Z,46.06
2022-08-28T13:45:42.567Z,48.17
2022-08-28T13:48:14.162Z,47.32
2022-08-28T13:50:47.961Z,45.12
2022-08-28T13:53:19.754Z,45.88
2022-08-28T13:55:51.395Z,44.75
2022-08-28T13:58:19.807Z,44.51
2022-08-28T14:00:51.045Z,44.06
2022-08-28T14:03:35.989Z,43.88
2022-08-28T14:06:06.392Z,44.59
2022-08-28T14:08:35.142Z,44.24
2022-08-28T14:11:04.339Z,43.73
2022-08-28T14:13:32.740Z,42.29
2022-08-28T14:16:01.325Z,42.89
2022-08-28T14:18:31.043Z,43.18
2022-08-28T14:20:59.577Z,41.70
2022-08-28T14:23:28.028Z,42.19
2022-08-28T14:25:56.537Z,43.23
2022-08-28T14:28:24.921Z,42.35
2022-08-28T14:30:53.568Z,42.92
2022-08-28T14:33:22.376Z,41.17
2022-08-28T14:35:52.876Z,41.59
2022-08-28T14:38:21.435Z,40.01
2022-08-28T14:40:50.263Z,40.59
2022-08-28T14:43:22.471Z,41.24
2022-08-28T14:45:52.708Z,40.46
2022-08-28T14:48:21.250Z,39.96
2022-08-28T14:50:50.118Z,40.43
2022-08-28T14:53:19.904Z,40.38
2022-08-28T14:55:50.806Z,39.41
2022-08-28T14:58:20.921Z,39.87
2022-08-28T15:00:51.989Z,38.10
2022-08-28T15:03:22.140Z,38.90
2022-08-28T15:06:01.986Z,39.17
2022-08-28T15:08:32.472Z,38.72
2022-08-28T15:11:06.629Z,38.88
2022-08-28T15:13:35.387Z,38.37
2022-08-28T15:16:10.462Z,37.98
2022-08-28T15:18:45.846Z,38.33
2022-08-28T15:21:18.761Z,37.99
2022-08-28T15:23:50.557Z,38.36
2022-08-28T15:26:19.524Z,38.29
2022-08-28T15:28:48.560Z,39.02
2022-08-28T15:31:17.403Z,38.19
2022-08-28T15:33:45.987Z,37.74
2022-08-28T15:36:14.575Z,38.33
2022-08-28T15:39:00.634Z,38.06
2022-08-28T15:41:31.727Z,38.27
2022-08-28T15:44:02.293Z,37.90
2022-08-28T15:46:33.975Z,37.40
2022-08-28T15:49:03.476Z,37.87
2022-08-28T15:51:32.624Z,37.96
2022-08-28T15:54:01.517Z,37.53
2022-08-28T15:56:31.338Z,37.91
2022-08-28T15:58:59.754Z,37.17
2022-08-28T16:01:28.547Z,37.97
2022-08-28T16:03:57.102Z,37.50
2022-08-28T16:06:26.940Z,37.68
2022-08-28T16:08:55.905Z,37.58
2022-08-28T16:11:24.658Z,36.97
2022-08-28T16:13:54.956Z,37.18
2022-08-28T16:16:23.407Z,37.30
2022-08-28T16:18:54.173Z,37.30
2022-08-28T16:21:22.855Z,37.37
2022-08-28T16:23:56.157Z,36.74
2022-08-28T16:26:24.708Z,36.69
2022-08-28T16:28:54.788Z,36.85
2022-08-28T16:31:23.368Z,36.79
2022-08-28T16:33:52.083Z,35.69
2022-08-28T16:36:23.757Z,36.63
2022-08-28T16:39:00.551Z,36.69
2022-08-28T16:41:33.482Z,36.23
2022-08-28T16:44:03.673Z,36.74
2022-08-28T16:46:32.358Z,36.10
2022-08-28T16:49:01.471Z,35.98
2022-08-28T16:51:29.999Z,36.17
2022-08-28T16:53:58.926Z,36.40
2022-08-28T16:56:27.405Z,36.82
2022-08-28T16:58:57.086Z,36.62
2022-08-28T17:01:27.401Z,36.81
2022-08-28T17:03:56.946Z,36.32
2022-08-28T17:06:28.486Z,37.03
2022-08-28T17:08:57.906Z,37.33
2022-08-28T17:11:27.620Z,36.88
2022-08-28T17:13:56.600Z,37.20
2022-08-28T17:16:29.654Z,37.38
2022-08-28T17:18:58.690Z,37.31
2022-08-28T17:21:44.622Z,36.95
2022-08-28T17:24:13.471Z,36.96
2022-08-28T17:26:44.469Z,37.17
2022-08-28T17:29:12.926Z,37.04
2022-08-28T17:31:42.940Z,37.48
2022-08-28T17:34:12.216Z,37.83
2022-08-28T17:36:43.384Z,37.95
2022-08-28T17:39:15.544Z,38.29
2022-08-28T17:41:44.142Z,38.46
2022-08-28T17:44:13.839Z,38.53
2022-08-28T17:46:43.642Z,38.61
2022-08-28T17:49:12.144Z,38.81
2022-08-28T17:51:43.233Z,38.58
2022-08-28T17:54:14.010Z,39.03
2022-08-28T17:56:43.025Z,39.18
2022-08-28T17:59:12.122Z,39.12
2022-08-28T18:01:43.288Z,39.42
2022-08-28T18:04:12.664Z,39.94
2022-08-28T18:06:41.230Z,39.73
2022-08-28T18:09:10.784Z,40.12
2022-08-28T18:11:39.262Z,40.39
2022-08-28T18:14:08.461Z,40.41
2022-08-28T18:16:39.341Z,40.98
2022-08-28T18:19:11.663Z,40.72
2022-08-28T18:21:41.252Z,40.96
2022-08-28T18:24:12.979Z,41.05
2022-08-28T18:26:42.565Z,41.69
2022-08-28T18:29:11.456Z,41.86
2022-08-28T18:31:40.181Z,41.51
2022-08-28T18:34:10.949Z,42.08
2022-08-28T18:36:41.539Z,41.96
2022-08-28T18:39:10.978Z,41.82
2022-08-28T18:41:43.778Z,42.42
2022-08-28T18:44:15.284Z,42.16
2022-08-28T18:46:44.830Z,42.05
2022-08-28T18:49:14.791Z,42.46
2022-08-28T18:51:44.918Z,42.54
2022-08-28T18:54:16.617Z,42.75
2022-08-28T18:56:45.345Z,43.64
2022-08-28T18:59:14.496Z,43.26
2022-08-28T19:01:43.539Z,42.93
2022-08-28T19:04:12.132Z,43.23
2022-08-28T19:06:42.309Z,44.12
2022-08-28T19:09:19.348Z,44.42
2022-08-28T19:11:49.556Z,44.49
2022-08-28T19:14:18.085Z,44.54
2022-08-28T19:16:46.982Z,44.54
2022-08-28T19:19:15.724Z,44.52
2022-08-28T19:21:45.831Z,44.94
2022-08-28T19:24:17.742Z,45.32
2022-08-28T19:26:46.227Z,44.85
2022-08-28T19:29:15.054Z,45.30
2022-08-28T19:31:44.744Z,45.76
2022-08-28T19:34:13.565Z,45.74
2022-08-28T19:36:42.514Z,46.22
2022-08-28T19:39:13.016Z,45.68
2022-08-28T19:41:41.586Z,45.78
2022-08-28T19:44:11.087Z,46.18
2022-08-28T19:46:40.733Z,46.19
2022-08-28T19:49:09.437Z,46.24
2022-08-28T19:51:39.846Z,46.46
2022-08-28T19:54:11.087Z,47.14
2022-08-28T19:56:41.903Z,47.43
2022-08-28T19:59:10.552Z,47.86
2022-08-28T20:01:43.665Z,47.97
2022-08-28T20:04:17.366Z,48.08
2022-08-28T20:06:46.844Z,48.16
2022-08-28T20:09:17.747Z,48.35
2022-08-28T20:11:49.017Z,48.39
2022-08-28T20:14:18.956Z,48.68
2022-08-28T20:16:50.851Z,49.00
2022-08-28T20:19:20.353Z,49.21
2022-08-28T20:21:51.004Z,49.61
2022-08-28T20:24:23.982Z,50.15
2022-08-28T20:26:54.569Z,50.72
2022-08-28T20:29:24.114Z,51.09
2022-08-28T20:31:53.130Z,51.38
2022-08-28T20:34:22.028Z,51.71
2022-08-28T20:36:50.657Z,51.97
2022-08-28T20:39:20.535Z,52.21
2022-08-28T20:41:50.340Z,52.78
2022-08-28T20:44:22.693Z,53.38
2022-08-28T20:46:53.781Z,53.69
2022-08-28T20:49:23.707Z,53.50
2022-08-28T20:51:56.937Z,53.76
2022-08-28T20:54:29.735Z,53.88
2022-08-28T20:57:00.308Z,54.22
2022-08-28T20:59:39.181Z,54.58
2022-08-28T21:02:11.519Z,54.53
2022-08-28T21:04:41.865Z,54.93
2022-08-28T21:07:11.520Z,55.46
2022-08-28T21:10:04.019Z,55.58
2022-08-28T21:12:29.278Z,56.07
2022-08-28T21:14:59.747Z,55.96
2022-08-28T21:17:29.814Z,56.27
2022-08-28T21:20:01.787Z,56.71
2022-08-28T21:22:31.846Z,56.67
2022-08-28T21:25:01.917Z,56.68
2022-08-28T21:27:30.401Z,56.98
2022-08-28T21:30:01.757Z,57.24
2022-08-28T21:32:32.568Z,57.76
2022-08-28T21:35:02.222Z,57.96
2022-08-28T21:37:32.290Z,58.29
2022-08-28T21:40:01.382Z,58.49
2022-08-28T21:42:30.166Z,59.09
2022-08-28T21:44:59.954Z,59.08
2022-08-28T21:47:28.715Z,59.65
2022-08-28T21:49:58.535Z,60.30
2022-08-28T21:52:30.339Z,61.13
2022-08-28T21:54:59.782Z,61.58
2022-08-28T21:57:29.304Z,61.52
2022-08-28T21:59:59.518Z,61.44
2022-08-28T22:02:28.541Z,60.96
2022-08-28T22:04:56.929Z,60.15
2022-08-28T22:07:25.693Z,60.47
2022-08-28T22:09:54.117Z,60.60
2022-08-28T22:12:22.558Z,60.84
2022-08-28T22:14:50.874Z,61.65
2022-08-28T22:17:21.688Z,61.50
2022-08-28T22:19:50.018Z,61.26
2022-08-28T22:22:35.811Z,60.96
2022-08-28T22:25:04.979Z,60.33
2022-08-28T22:27:34.549Z,59.95
2022-08-28T22:30:02.914Z,59.71
2022-08-28T22:32:32.667Z,60.32
2022-08-28T22:35:01.060Z,60.89
2022-08-28T22:37:29.325Z,61.25
2022-08-28T22:39:59.185Z,61.90
2022-08-28T22:42:27.619Z,62.33
2022-08-28T22:44:56.053Z,62.59
2022-08-28T22:47:24.487Z,62.69
2022-08-28T22:49:58.517Z,63.12
2022-08-28T22:52:27.740Z,63.04
2022-08-28T22:54:56.168Z,63.41
2022-08-28T22:57:24.981Z,63.52
2022-08-28T22:59:53.600Z,64.00
2022-08-28T23:02:27.178Z,63.95
2022-08-28T23:04:57.245Z,64.59
2022-08-28T23:07:25.653Z,64.71
2022-08-28T23:09:54.136Z,65.07
2022-08-28T23:12:22.559Z,65.44
2022-08-28T23:14:51.247Z,65.39
2022-08-28T23:17:20.242Z,65.33
2022-08-28T23:19:49.208Z,65.66
2022-08-28T23:22:20.176Z,65.71
2022-08-28T23:24:49.009Z,66.01
2022-08-28T23:27:36.287Z,66.20
2022-08-28T23:30:08.313Z,66.38
2022-08-28T23:32:37.292Z,66.43
2022-08-28T23:35:07.585Z,66.63
2022-08-28T23:37:39.572Z,66.81
2022-08-28T23:40:12.754Z,66.73
2022-08-28T23:42:41.494Z,67.21
2022-08-28T23:45:12.015Z,67.45
2022-08-28T23:47:40.953Z,67.49
2022-08-28T23:50:14.104Z,67.77
2022-08-28T23:52:45.232Z,68.11
2022-08-28T23:55:16.824Z,68.35
2022-08-28T23:57:46.143Z,68.27
